Time;durP1;ratioP1;P1;durP2;ratioP2;P2;SDS_P1;SDS_P2;PMS_P1;PMS_P2;Temp;Humidity;BMP_temperature;BMP_pressure;BME280_temperature;BME280_humidity;BME280_pressure;Samples;Min_cycle;Max_cycle;Signal;HPM_P1;HPM_P2
2022/10/26 00:00:18;;;;;;;6.30;5.20;;;;;20.20;100362.00;;;;2070645;28;20691;-54
2022/10/26 00:01:19;;;;;;;5.83;4.90;;;;;20.20;100363.00;;;;2069134;28;20243;-54
2022/10/26 00:02:19;;;;;;;5.80;4.57;;;;;20.20;100359.00;;;;2070020;28;20218;-54
2022/10/26 00:03:20;;;;;;;9.30;5.40;;;;;20.20;100357.00;;;;2069717;28;20261;-54
2022/10/26 00:04:20;;;;;;;8.33;4.83;;;;;20.20;100355.00;;;;2070819;28;20309;-54
2022/10/26 00:05:21;;;;;;;5.90;4.57;;;;;20.20;100357.00;;;;2071056;28;20321;-54
2022/10/26 00:06:23;;;;;;;5.55;4.95;;;;;20.20;100354.00;;;;2070848;28;20245;-54
2022/10/26 00:07:24;;;;;;;5.45;4.95;;;;;20.20;100258.00;;;;2069817;28;20222;-53
2022/10/26 00:08:24;;;;;;;6.10;4.90;;;;;20.20;100354.00;;;;2070731;28;20206;-54
2022/10/26 00:09:24;;;;;;;5.50;4.70;;;;;20.10;100347.00;;;;2070740;28;20234;-54
2022/10/26 00:10:25;;;;;;;4.97;4.33;;;;;20.20;100346.00;;;;2070394;28;20217;-53
2022/10/26 00:11:25;;;;;;;6.47;5.00;;;;;20.20;100351.00;;;;2071075;28;20214;-53
2022/10/26 00:12:25;;;;;;;4.73;4.30;;;;;20.20;100333.00;;;;2069975;28;20222;-54
2022/10/26 00:13:26;;;;;;;6.07;4.50;;;;;20.20;100342.00;;;;2069805;28;20211;-54
2022/10/26 00:14:26;;;;;;;5.03;4.17;;;;;20.20;100348.00;;;;2070125;28;20250;-54
2022/10/26 00:15:27;;;;;;;5.63;4.40;;;;;20.20;100343.00;;;;2069803;28;20248;-54
2022/10/26 00:16:27;;;;;;;4.87;3.90;;;;;20.20;100339.00;;;;2070320;28;20722;-54
2022/10/26 00:17:27;;;;;;;4.90;4.30;;;;;20.20;100343.00;;;;2071756;28;20251;-54
2022/10/26 00:18:28;;;;;;;5.70;4.57;;;;;20.20;100339.00;;;;2078987;28;20210;-54
2022/10/26 00:19:28;;;;;;;5.00;3.80;;;;;20.20;100343.00;;;;2078575;28;20225;-54
2022/10/26 00:20:28;;;;;;;4.27;3.87;;;;;20.10;100341.00;;;;2071172;28;20218;-54
2022/10/26 00:21:29;;;;;;;5.43;3.60;;;;;20.10;100337.00;;;;2070369;28;20279;-54
2022/10/26 00:22:29;;;;;;;4.33;3.93;;;;;20.10;100341.00;;;;2069896;28;20230;-54
2022/10/26 00:23:30;;;;;;;4.77;4.27;;;;;20.10;100343.00;;;;2075843;28;20333;-54
2022/10/26 00:24:30;;;;;;;6.03;4.53;;;;;20.20;100337.00;;;;2078595;28;20225;-54
2022/10/26 00:25:31;;;;;;;4.10;3.70;;;;;20.20;100343.00;;;;2078627;28;20459;-54
2022/10/26 00:26:31;;;;;;;5.87;3.80;;;;;20.10;100334.00;;;;2076827;28;20219;-54
2022/10/26 00:27:33;;;;;;;4.90;4.10;;;;;20.10;100342.00;;;;2070222;28;20237;-54
2022/10/26 00:28:33;;;;;;;4.55;3.80;;;;;20.10;100346.00;;;;2071002;28;20233;-53
2022/10/26 00:29:34;;;;;;;4.27;3.50;;;;;20.10;100335.00;;;;2070632;28;20300;-54
2022/10/26 00:30:37;;;;;;;4.40;4.00;;;;;20.10;100341.00;;;;2070351;28;20237;-54
2022/10/26 00:31:38;;;;;;;5.22;4.10;;;;;20.10;100335.00;;;;2069842;28;20264;-54
2022/10/26 00:32:38;;;;;;;5.27;4.13;;;;;20.10;100338.00;;;;2069252;28;20210;-53
2022/10/26 00:33:39;;;;;;;4.90;3.83;;;;;20.10;100338.00;;;;2070830;28;20221;-54
2022/10/26 00:34:39;;;;;;;3.87;3.47;;;;;20.10;100337.00;;;;2070463;28;20218;-54
2022/10/26 00:35:39;;;;;;;4.13;3.70;;;;;20.10;100339.00;;;;2070419;28;20233;-54
2022/10/26 00:36:40;;;;;;;4.00;3.60;;;;;20.10;100344.00;;;;2064142;28;20210;-54
2022/10/26 00:37:40;;;;;;;5.83;3.50;;;;;20.10;100340.00;;;;2064138;28;20214;-54
2022/10/26 00:38:44;;;;;;;4.20;3.20;;;;;20.10;100338.00;;;;2070612;28;20317;-54
2022/10/26 00:39:45;;;;;;;4.10;3.70;;;;;20.10;100344.00;;;;2070377;28;20575;-54
2022/10/26 00:40:46;;;;;;;4.27;3.77;;;;;20.00;100349.00;;;;2070406;28;20218;-54
2022/10/26 00:41:46;;;;;;;4.05;3.60;;;;;20.10;100342.00;;;;2074761;28;20221;-54
2022/10/26 00:42:46;;;;;;;4.17;3.73;;;;;20.10;100345.00;;;;2078081;28;20217;-54
2022/10/26 00:43:47;;;;;;;3.80;3.40;;;;;20.10;100343.00;;;;2077075;28;20217;-54
2022/10/26 00:44:47;;;;;;;4.13;3.73;;;;;20.10;100336.00;;;;2077777;28;20284;-53
2022/10/26 00:45:48;;;;;;;3.50;2.93;;;;;20.10;100335.00;;;;2077689;28;20217;-54
2022/10/26 00:46:49;;;;;;;4.70;3.63;;;;;20.10;100338.00;;;;2077540;28;20223;-54
2022/10/26 00:47:55;;;;;;;3.53;3.10;;;;;20.10;100325.00;;;;2077980;28;20972;-55
2022/10/26 00:48:57;;;;;;;3.20;2.90;;;;;20.10;100321.00;;;;2077970;28;20217;-54
2022/10/26 00:50:00;;;;;;;4.07;3.00;;;;;20.10;100335.00;;;;2076773;28;20284;-53
2022/10/26 00:51:02;;;;;;;3.33;3.03;;;;;20.10;100342.00;;;;2076551;28;20213;-53
2022/10/26 00:52:03;;;;;;;4.88;3.65;;;;;20.10;100342.00;;;;2061385;28;20366;-54
2022/10/26 00:53:04;;;;;;;5.27;3.33;;;;;20.10;100346.00;;;;2077121;28;20299;-53
2022/10/26 00:54:06;;;;;;;3.37;2.80;;;;;20.10;100346.00;;;;2077238;28;20850;-54
2022/10/26 00:55:06;;;;;;;3.80;3.13;;;;;20.10;100341.00;;;;2077513;28;20682;-54
2022/10/26 00:56:06;;;;;;;3.70;3.07;;;;;20.10;100319.00;;;;2076482;28;20213;-54
2022/10/26 00:57:07;;;;;;;3.50;3.20;;;;;20.10;100341.00;;;;2076849;28;20213;-54
2022/10/26 00:58:07;;;;;;;4.93;3.47;;;;;20.10;100331.00;;;;2069069;28;20217;-54
2022/10/26 00:59:08;;;;;;;5.00;3.10;;;;;20.10;100320.00;;;;2052959;28;20247;-54
2022/10/26 01:00:09;;;;;;;4.25;3.00;;;;;20.10;100333.00;;;;2052402;28;20219;-53
2022/10/26 01:01:10;;;;;;;3.40;3.10;;;;;20.10;100341.00;;;;2061606;28;20723;-54
2022/10/26 01:02:10;;;;;;;3.00;2.63;;;;;20.10;100331.00;;;;2075520;28;20214;-53
2022/10/26 01:03:11;;;;;;;3.40;3.10;;;;;20.10;100343.00;;;;2070575;28;20489;-54
2022/10/26 01:04:11;;;;;;;3.20;2.90;;;;;20.10;100343.00;;;;2069402;28;20240;-54
2022/10/26 01:05:12;;;;;;;3.93;3.20;;;;;20.10;100336.00;;;;2070299;28;20218;-54
2022/10/26 01:06:13;;;;;;;3.80;3.15;;;;;20.10;100335.00;;;;2069152;28;20210;-54
2022/10/26 01:07:13;;;;;;;4.67;3.00;;;;;20.10;100322.00;;;;2058541;28;20236;-54
2022/10/26 01:08:14;;;;;;;3.90;3.00;;;;;20.10;100338.00;;;;2065038;28;20241;-54
2022/10/26 01:09:15;;;;;;;3.50;3.20;;;;;20.00;100330.00;;;;2069214;28;20312;-54
2022/10/26 01:10:15;;;;;;;3.40;3.10;;;;;20.00;100335.00;;;;2053325;28;20219;-54
2022/10/26 01:11:16;;;;;;;3.70;3.30;;;;;20.00;100339.00;;;;2069346;28;20218;-54
2022/10/26 01:12:16;;;;;;;3.43;3.13;;;;;20.10;100335.00;;;;2076466;28;20237;-54
2022/10/26 01:13:16;;;;;;;3.50;2.97;;;;;20.00;100332.00;;;;2072703;28;20314;-54
2022/10/26 01:14:17;;;;;;;3.60;3.30;;;;;20.10;100308.00;;;;2068896;28;20214;-54
2022/10/26 01:15:17;;;;;;;3.30;2.90;;;;;20.10;100326.00;;;;2068099;28;20276;-54
2022/10/26 01:16:47;;;;;;;3.23;2.93;;;;;20.10;100331.00;;;;2069365;28;20728;-54
2022/10/26 01:17:53;;;;;;;4.68;2.95;;;;;20.10;100330.00;;;;2061379;28;20785;-54
2022/10/26 01:19:08;;;;;;;3.40;3.10;;;;;20.00;100325.00;;;;2069231;28;20214;-54
2022/10/26 01:20:21;;;;;;;3.50;3.10;;;;;20.10;100321.00;;;;2071203;28;20316;-54
2022/10/26 01:21:24;;;;;;;3.72;3.10;;;;;20.10;100325.00;;;;2068945;28;20210;-54
2022/10/26 01:22:35;;;;;;;3.30;3.00;;;;;20.10;100323.00;;;;2067927;28;20295;-54
2022/10/26 01:23:57;;;;;;;3.45;2.75;;;;;20.00;100326.00;;;;2069169;28;20210;-54
2022/10/26 01:24:58;;;;;;;4.30;2.78;;;;;20.00;100325.00;;;;2073497;28;20255;-53
2022/10/26 01:26:16;;;;;;;3.80;2.93;;;;;20.00;100315.00;;;;2078097;28;20690;-53
2022/10/26 01:27:28;;;;;;;3.25;2.83;;;;;20.00;100320.00;;;;2077267;28;20202;-53
2022/10/26 01:29:02;;;;;;;4.35;3.17;;;;;20.10;100314.00;;;;2077182;28;20732;-54
2022/10/26 01:30:17;;;;;;;3.83;2.55;;;;;20.10;100324.00;;;;2077050;28;21084;-54
2022/10/26 01:31:21;;;;;;;2.80;2.60;;;;;20.00;100307.00;;;;2069452;28;20210;-54
2022/10/26 01:32:40;;;;;;;3.80;3.00;;;;;20.10;100313.00;;;;2067946;28;20313;-55
2022/10/26 01:33:45;;;;;;;2.95;2.60;;;;;20.00;100314.00;;;;2074190;28;21040;-53
2022/10/26 01:34:50;;;;;;;3.45;3.15;;;;;20.00;100313.00;;;;2077341;28;20288;-54
2022/10/26 01:36:12;;;;;;;3.40;2.83;;;;;20.00;100305.00;;;;2076947;28;20671;-53
2022/10/26 01:37:16;;;;;;;3.10;2.58;;;;;20.00;100305.00;;;;2068526;28;20674;-53
2022/10/26 01:38:22;;;;;;;2.80;2.53;;;;;20.00;100301.00;;;;2062845;28;20249;-53
2022/10/26 01:39:35;;;;;;;3.65;2.30;;;;;20.10;100298.00;;;;2077032;28;20213;-55
2022/10/26 01:40:37;;;;;;;2.83;2.53;;;;;20.10;100304.00;;;;2077448;28;20229;-53
2022/10/26 01:41:46;;;;;;;3.25;2.65;;;;;20.00;100300.00;;;;2076783;28;20213;-55
2022/10/26 01:42:48;;;;;;;3.20;2.35;;;;;20.00;100292.00;;;;2061587;28;20731;-54
2022/10/26 01:43:52;;;;;;;2.90;2.60;;;;;20.00;100303.00;;;;2060930;28;20222;-54
2022/10/26 01:44:57;;;;;;;3.47;2.58;;;;;20.00;100286.00;;;;2068959;28;20280;-54
2022/10/26 01:45:58;;;;;;;2.80;2.45;;;;;20.00;100189.00;;;;2069886;28;20217;-53
2022/10/26 01:46:58;;;;;;;2.60;2.40;;;;;20.00;100301.00;;;;2077505;28;20764;-54
2022/10/26 01:47:58;;;;;;;2.17;1.97;;;;;20.00;100280.00;;;;2077669;28;20262;-53
2022/10/26 01:49:01;;;;;;;3.53;2.60;;;;;20.00;100294.00;;;;2077136;28;20267;-54
2022/10/26 01:50:01;;;;;;;4.13;2.45;;;;;20.00;100295.00;;;;2077688;28;20209;-54
2022/10/26 01:51:02;;;;;;;3.07;2.60;;;;;20.00;100297.00;;;;2077293;28;20222;-54
2022/10/26 01:52:02;;;;;;;4.53;3.10;;;;;20.00;100296.00;;;;2076672;28;20218;-55
2022/10/26 01:53:03;;;;;;;3.10;2.40;;;;;20.00;100299.00;;;;2077660;28;20209;-54
2022/10/26 01:54:03;;;;;;;3.70;2.70;;;;;20.00;100294.00;;;;2077676;28;20267;-54
2022/10/26 01:55:06;;;;;;;2.37;2.17;;;;;20.00;100288.00;;;;2077264;28;20218;-53
2022/10/26 01:56:10;;;;;;;2.58;2.05;;;;;20.00;100295.00;;;;2078323;28;20654;-54
2022/10/26 01:57:12;;;;;;;3.22;2.90;;;;;20.00;100288.00;;;;2069564;28;21245;-54
2022/10/26 01:58:27;;;;;;;4.63;2.33;;;;;20.00;100292.00;;;;2061649;28;20215;-54
2022/10/26 01:59:49;;;;;;;2.40;2.20;;;;;20.00;100297.00;;;;2077236;28;20697;-54
2022/10/26 02:01:00;;;;;;;3.00;2.30;;;;;20.00;100274.00;;;;2077487;28;20279;-54
2022/10/26 02:02:26;;;;;;;2.60;2.35;;;;;20.00;100286.00;;;;2068342;28;20210;-54
2022/10/26 02:03:38;;;;;;;3.33;2.20;;;;;20.00;100288.00;;;;2063743;28;20726;-57
2022/10/26 02:04:50;;;;;;;2.25;2.05;;;;;20.00;100280.00;;;;2071702;28;20215;-53
2022/10/26 02:05:56;;;;;;;2.60;2.40;;;;;20.00;100282.00;;;;2079496;28;20221;-54
2022/10/26 02:07:15;;;;;;;2.70;2.38;;;;;20.00;100286.00;;;;2077667;28;20258;-55
2022/10/26 02:08:33;;;;;;;2.45;2.20;;;;;20.00;100282.00;;;;2073498;28;20230;-54
2022/10/26 02:09:40;;;;;;;2.97;2.35;;;;;20.00;100283.00;;;;2079293;28;20228;-54
2022/10/26 02:11:05;;;;;;;2.72;2.40;;;;;20.00;100278.00;;;;2079410;28;20306;-54
2022/10/26 02:12:29;;;;;;;2.53;2.33;;;;;20.00;100277.00;;;;2078198;28;20268;-53
2022/10/26 02:13:46;;;;;;;2.85;2.08;;;;;20.00;100281.00;;;;2078669;28;20229;-54
2022/10/26 02:14:49;;;;;;;3.03;2.38;;;;;20.00;100282.00;;;;2079590;28;20216;-54
2022/10/26 02:15:54;;;;;;;2.40;1.85;;;;;20.00;100273.00;;;;2079271;28;20213;-54
2022/10/26 02:17:03;;;;;;;6.03;2.30;;;;;20.00;100280.00;;;;2079472;28;20213;-54
2022/10/26 02:18:14;;;;;;;3.38;2.20;;;;;20.00;100250.00;;;;2070942;28;20721;-54
2022/10/26 02:19:39;;;;;;;2.30;2.10;;;;;20.00;100279.00;;;;2064460;28;20258;-54
2022/10/26 02:20:42;;;;;;;2.60;2.17;;;;;20.00;100268.00;;;;2069396;28;20210;-54
2022/10/26 02:21:44;;;;;;;2.08;1.85;;;;;20.00;100274.00;;;;2067323;28;20907;-54
2022/10/26 02:22:47;;;;;;;4.82;1.85;;;;;20.00;100272.00;;;;2070031;28;20725;-53
2022/10/26 02:23:47;;;;;;;2.50;2.08;;;;;20.00;100269.00;;;;2079038;28;20202;-54
2022/10/26 02:24:49;;;;;;;2.17;1.90;;;;;20.00;100270.00;;;;2078677;28;20752;-53
2022/10/26 02:25:50;;;;;;;3.72;2.30;;;;;20.00;100264.00;;;;2076085;28;20233;-53
2022/10/26 02:26:51;;;;;;;2.30;2.10;;;;;20.00;100242.00;;;;2078939;28;20705;-53
2022/10/26 02:27:54;;;;;;;3.13;2.23;;;;;20.00;100257.00;;;;2067573;28;20265;-54
2022/10/26 02:28:56;;;;;;;3.70;2.00;;;;;20.00;100267.00;;;;2055888;28;20235;-54
2022/10/26 02:29:57;;;;;;;3.28;1.77;;;;;20.00;100253.00;;;;2062747;28;20245;-54
2022/10/26 02:30:57;;;;;;;2.73;2.10;;;;;20.00;100271.00;;;;2062908;28;20218;-54
2022/10/26 02:31:58;;;;;;;5.37;2.03;;;;;20.00;100267.00;;;;2061845;28;20268;-53
2022/10/26 02:32:58;;;;;;;2.80;2.00;;;;;20.00;100243.00;;;;2078156;28;20513;-53
2022/10/26 02:33:59;;;;;;;2.47;1.83;;;;;20.00;100267.00;;;;2070862;28;20214;-54
2022/10/26 02:35:00;;;;;;;2.23;1.90;;;;;20.00;100278.00;;;;2070926;28;20222;-54
2022/10/26 02:36:01;;;;;;;2.20;2.00;;;;;20.00;100265.00;;;;2070107;28;20464;-56
2022/10/26 02:37:02;;;;;;;2.17;1.90;;;;;20.00;100271.00;;;;2070664;28;20706;-53
2022/10/26 02:38:04;;;;;;;2.40;1.80;;;;;20.00;100260.00;;;;2077216;28;20231;-55
2022/10/26 02:39:04;;;;;;;3.47;2.00;;;;;20.00;100260.00;;;;2078649;28;20234;-54
2022/10/26 02:40:08;;;;;;;2.40;2.00;;;;;20.00;100250.00;;;;2078548;28;20245;-54
2022/10/26 02:41:09;;;;;;;3.90;2.10;;;;;20.00;100255.00;;;;2069131;28;20249;-54
2022/10/26 02:42:10;;;;;;;2.10;1.90;;;;;20.00;100255.00;;;;2061414;28;20779;-54
2022/10/26 02:43:11;;;;;;;2.23;2.03;;;;;20.00;100283.00;;;;2062376;28;20458;-54
2022/10/26 02:44:15;;;;;;;2.70;2.00;;;;;20.00;100258.00;;;;2062204;28;20282;-53
2022/10/26 02:45:17;;;;;;;2.90;2.03;;;;;20.00;100252.00;;;;2060586;28;20226;-54
2022/10/26 02:46:19;;;;;;;3.20;2.28;;;;;20.00;100261.00;;;;2071777;28;20257;-54
2022/10/26 02:47:19;;;;;;;2.30;1.95;;;;;20.00;100252.00;;;;2062429;28;20223;-54
2022/10/26 02:48:19;;;;;;;4.23;1.90;;;;;20.00;100250.00;;;;2070503;28;20211;-54
2022/10/26 02:49:20;;;;;;;4.63;1.87;;;;;20.00;100246.00;;;;2070224;28;20800;-53
2022/10/26 02:50:22;;;;;;;2.80;1.97;;;;;20.00;100241.00;;;;2070443;28;20655;-53
2022/10/26 02:51:38;;;;;;;2.58;1.90;;;;;20.00;100252.00;;;;2070325;28;20312;-54
2022/10/26 02:52:56;;;;;;;2.42;1.98;;;;;20.00;100232.00;;;;2069390;28;20214;-54
2022/10/26 02:54:13;;;;;;;2.97;1.80;;;;;20.00;100245.00;;;;2063552;28;20211;-54
2022/10/26 02:55:24;;;;;;;2.42;2.10;;;;;20.00;100248.00;;;;2066948;28;20345;-54
2022/10/26 02:56:28;;;;;;;2.58;2.03;;;;;20.00;100245.00;;;;2070632;28;20680;-53
2022/10/26 02:57:38;;;;;;;2.75;2.22;;;;;20.00;100238.00;;;;2060533;28;20226;-54
2022/10/26 02:58:39;;;;;;;2.30;1.77;;;;;20.00;100238.00;;;;2067405;28;20217;-53
2022/10/26 02:59:41;;;;;;;2.90;1.80;;;;;20.00;100242.00;;;;2070762;28;20237;-54
2022/10/26 03:00:41;;;;;;;2.50;1.73;;;;;20.00;100218.00;;;;2062982;28;20215;-53
2022/10/26 03:01:42;;;;;;;3.63;1.87;;;;;20.00;100256.00;;;;2070501;28;20214;-54
2022/10/26 03:02:42;;;;;;;1.80;1.70;;;;;19.90;100238.00;;;;2069968;28;20694;-54
2022/10/26 03:03:43;;;;;;;1.67;1.57;;;;;20.00;100240.00;;;;2064380;28;20685;-54
2022/10/26 03:04:43;;;;;;;2.23;1.60;;;;;19.90;100234.00;;;;2070683;28;20218;-54
2022/10/26 03:05:43;;;;;;;3.53;2.00;;;;;20.00;100221.00;;;;2070428;28;20207;-54
2022/10/26 03:06:53;;;;;;;4.77;2.27;;;;;20.00;100239.00;;;;2070475;28;20314;-53
2022/10/26 03:07:54;;;;;;;4.13;1.48;;;;;20.00;100236.00;;;;2071566;28;20206;-53
2022/10/26 03:08:54;;;;;;;1.80;1.60;;;;;20.00;100247.00;;;;2071245;28;20210;-54
2022/10/26 03:09:54;;;;;;;1.70;1.47;;;;;20.00;100229.00;;;;2071546;28;20565;-54
2022/10/26 03:10:55;;;;;;;1.87;1.57;;;;;20.00;100247.00;;;;2071416;28;20711;-54
2022/10/26 03:11:55;;;;;;;1.93;1.77;;;;;20.00;100233.00;;;;2073099;28;20667;-54
2022/10/26 03:12:55;;;;;;;2.63;1.77;;;;;20.00;100241.00;;;;2072209;28;20226;-54
2022/10/26 03:13:56;;;;;;;3.80;1.57;;;;;20.00;100237.00;;;;2070144;28;20219;-54
2022/10/26 03:14:56;;;;;;;3.20;1.63;;;;;20.00;100240.00;;;;2071111;28;20253;-54
2022/10/26 03:15:56;;;;;;;2.60;1.50;;;;;20.00;100239.00;;;;2071150;28;20225;-53
2022/10/26 03:16:57;;;;;;;11.40;1.80;;;;;20.00;100240.00;;;;2071553;28;20214;-54
2022/10/26 03:17:57;;;;;;;2.17;1.37;;;;;20.00;100229.00;;;;2071285;28;20313;-54
2022/10/26 03:18:57;;;;;;;2.30;1.70;;;;;20.00;100232.00;;;;2072755;28;20658;-54
2022/10/26 03:19:58;;;;;;;3.33;1.70;;;;;20.00;100237.00;;;;2073328;28;20700;-54
2022/10/26 03:20:58;;;;;;;1.90;1.67;;;;;20.00;100234.00;;;;2071171;28;20630;-53
2022/10/26 03:21:58;;;;;;;4.10;1.60;;;;;20.00;100238.00;;;;2069239;28;20585;-54
2022/10/26 03:22:59;;;;;;;3.00;1.80;;;;;20.00;100235.00;;;;2071460;28;20652;-54
2022/10/26 03:23:59;;;;;;;3.27;1.57;;;;;20.00;100252.00;;;;2070459;28;20597;-54
2022/10/26 03:24:59;;;;;;;2.57;1.67;;;;;20.00;100244.00;;;;2069362;28;20691;-54
2022/10/26 03:26:00;;;;;;;3.17;1.43;;;;;20.00;100232.00;;;;2069509;28;20896;-54
2022/10/26 03:27:00;;;;;;;1.90;1.60;;;;;20.00;100232.00;;;;2070629;28;20573;-54
2022/10/26 03:28:01;;;;;;;1.93;1.30;;;;;20.00;100226.00;;;;2071287;28;20214;-54
2022/10/26 03:29:02;;;;;;;4.18;1.70;;;;;20.00;100223.00;;;;2071172;28;20226;-54
2022/10/26 03:30:02;;;;;;;1.47;1.27;;;;;20.00;100229.00;;;;2071299;28;20305;-54
2022/10/26 03:31:03;;;;;;;1.57;1.47;;;;;20.00;100223.00;;;;2075671;28;20214;-54
2022/10/26 03:32:03;;;;;;;3.20;1.50;;;;;19.60;100222.00;;;;2078034;28;20870;-54
2022/10/26 03:33:04;;;;;;;3.13;1.50;;;;;20.00;100227.00;;;;2079203;28;20225;-54
2022/10/26 03:34:04;;;;;;;2.67;1.60;;;;;20.00;100228.00;;;;2079426;28;20214;-54
2022/10/26 03:35:04;;;;;;;2.87;1.63;;;;;20.00;100225.00;;;;2079314;28;20214;-54
2022/10/26 03:36:05;;;;;;;5.10;1.67;;;;;20.00;100235.00;;;;2079006;28;20229;-54
2022/10/26 03:37:05;;;;;;;2.97;2.00;;;;;20.00;100229.00;;;;2078161;28;20241;-54
2022/10/26 03:38:06;;;;;;;1.87;1.40;;;;;20.00;100229.00;;;;2078610;28;20210;-53
2022/10/26 03:39:06;;;;;;;2.97;1.50;;;;;20.00;100229.00;;;;2078698;28;20229;-53
2022/10/26 03:40:07;;;;;;;2.40;1.80;;;;;20.00;100224.00;;;;2079252;28;20214;-54
2022/10/26 03:41:08;;;;;;;1.50;1.40;;;;;20.00;100230.00;;;;2078846;28;20216;-54
2022/10/26 03:42:08;;;;;;;2.30;1.33;;;;;20.00;100225.00;;;;2078128;28;20724;-53
2022/10/26 03:43:08;;;;;;;2.27;1.43;;;;;20.00;100221.00;;;;2079403;28;20694;-54
2022/10/26 03:44:08;;;;;;;2.93;1.50;;;;;20.00;100214.00;;;;2079276;28;20694;-54
2022/10/26 03:45:09;;;;;;;1.80;1.60;;;;;20.00;100224.00;;;;2079162;28;20740;-54
2022/10/26 03:46:09;;;;;;;2.03;1.60;;;;;20.00;100227.00;;;;2072782;28;20635;-54
2022/10/26 03:47:10;;;;;;;1.60;1.10;;;;;20.00;100217.00;;;;2070628;28;20253;-53
2022/10/26 03:48:10;;;;;;;1.47;1.37;;;;;20.00;100228.00;;;;2070782;28;20267;-54
2022/10/26 03:49:10;;;;;;;1.40;1.20;;;;;20.00;100226.00;;;;2070539;28;20230;-54
2022/10/26 03:50:11;;;;;;;2.23;1.33;;;;;20.00;100222.00;;;;2070425;28;20224;-54
2022/10/26 03:51:12;;;;;;;2.30;1.40;;;;;20.00;100219.00;;;;2070016;28;20238;-55
2022/10/26 03:52:12;;;;;;;2.90;1.57;;;;;20.00;100229.00;;;;2069842;28;20527;-55
2022/10/26 03:53:12;;;;;;;3.10;1.40;;;;;20.00;100224.00;;;;2071123;28;20241;-55
2022/10/26 03:54:13;;;;;;;1.40;1.03;;;;;20.00;100246.00;;;;2071134;28;21129;-55
2022/10/26 03:55:13;;;;;;;2.47;1.70;;;;;20.00;100226.00;;;;2070855;28;20660;-54
2022/10/26 03:56:13;;;;;;;2.30;1.70;;;;;20.00;100231.00;;;;2070816;28;20580;-54
2022/10/26 03:57:14;;;;;;;1.40;1.13;;;;;20.00;100226.00;;;;2070980;28;20277;-55
2022/10/26 03:58:14;;;;;;;2.70;1.30;;;;;20.00;100227.00;;;;2071001;28;20214;-55
2022/10/26 03:59:14;;;;;;;2.40;1.37;;;;;20.00;100239.00;;;;2071251;28;20230;-54
2022/10/26 04:00:15;;;;;;;3.17;1.40;;;;;20.00;100226.00;;;;2070952;28;20211;-55
2022/10/26 04:01:15;;;;;;;1.70;1.60;;;;;20.00;100225.00;;;;2070268;28;20222;-54
2022/10/26 04:02:16;;;;;;;2.77;1.50;;;;;20.00;100227.00;;;;2069157;28;20446;-54
2022/10/26 04:03:16;;;;;;;2.03;1.40;;;;;20.00;100227.00;;;;2070773;28;20237;-54
2022/10/26 04:04:17;;;;;;;3.17;1.50;;;;;20.00;100227.00;;;;2070691;28;20253;-53
2022/10/26 04:05:17;;;;;;;2.67;1.40;;;;;20.00;100231.00;;;;2070835;28;20291;-54
2022/10/26 04:06:17;;;;;;;2.07;1.70;;;;;20.00;100233.00;;;;2071050;28;20214;-53
2022/10/26 04:07:18;;;;;;;1.70;1.20;;;;;20.00;100220.00;;;;2074740;28;20211;-54
2022/10/26 04:08:18;;;;;;;2.07;1.23;;;;;20.00;100158.00;;;;2070773;28;20230;-54
2022/10/26 04:09:18;;;;;;;2.00;1.37;;;;;20.00;100220.00;;;;2074293;28;20724;-54
2022/10/26 04:10:19;;;;;;;2.03;1.10;;;;;20.00;100231.00;;;;2071003;28;20222;-54
2022/10/26 04:11:19;;;;;;;1.40;1.30;;;;;20.00;100228.00;;;;2071141;28;20213;-54
2022/10/26 04:12:19;;;;;;;3.00;1.53;;;;;20.00;100225.00;;;;2069896;28;20290;-54
2022/10/26 04:13:20;;;;;;;1.97;1.50;;;;;20.00;100228.00;;;;2071011;28;20218;-54
2022/10/26 04:14:20;;;;;;;2.33;1.40;;;;;20.00;100227.00;;;;2070443;28;20237;-54
2022/10/26 04:15:20;;;;;;;1.63;1.20;;;;;20.00;100233.00;;;;2071003;28;20268;-54
2022/10/26 04:16:21;;;;;;;2.00;1.30;;;;;19.90;100224.00;;;;2070853;28;20206;-55
2022/10/26 04:17:21;;;;;;;1.60;1.50;;;;;20.00;100224.00;;;;2070702;28;20259;-54
2022/10/26 04:18:21;;;;;;;1.93;1.50;;;;;20.00;100221.00;;;;2065281;28;20214;-54
2022/10/26 04:19:22;;;;;;;2.70;1.10;;;;;20.00;100225.00;;;;2071929;28;20214;-54
2022/10/26 04:20:22;;;;;;;1.67;1.40;;;;;20.00;100233.00;;;;2072337;28;20218;-54
2022/10/26 04:21:23;;;;;;;1.63;1.10;;;;;20.00;100234.00;;;;2070986;28;20214;-54
2022/10/26 04:22:23;;;;;;;1.50;1.00;;;;;20.00;100238.00;;;;2069610;28;20234;-54
2022/10/26 04:23:23;;;;;;;2.47;1.37;;;;;20.00;100225.00;;;;2069156;28;20221;-53
2022/10/26 04:24:24;;;;;;;2.80;1.40;;;;;19.60;100225.00;;;;2070759;28;20222;-54
2022/10/26 04:25:24;;;;;;;1.80;1.43;;;;;20.00;100217.00;;;;2073133;28;20312;-54
2022/10/26 04:26:24;;;;;;;3.90;1.10;;;;;20.00;100237.00;;;;2078356;28;20221;-54
2022/10/26 04:27:25;;;;;;;2.27;1.40;;;;;20.00;100236.00;;;;2078741;28;20237;-54
2022/10/26 04:28:25;;;;;;;1.70;1.10;;;;;19.70;100235.00;;;;2078686;28;20291;-54
2022/10/26 04:29:25;;;;;;;1.90;1.20;;;;;20.00;100238.00;;;;2078699;28;20214;-54
2022/10/26 04:30:26;;;;;;;2.10;1.50;;;;;20.00;100243.00;;;;2078600;28;20272;-53
2022/10/26 04:31:26;;;;;;;1.80;1.10;;;;;20.00;100234.00;;;;2078941;28;20248;-53
2022/10/26 04:32:26;;;;;;;2.00;1.30;;;;;20.00;100241.00;;;;2074222;28;20744;-54
2022/10/26 04:33:26;;;;;;;1.50;1.30;;;;;20.00;100242.00;;;;2072995;28;20583;-54
2022/10/26 04:34:27;;;;;;;1.67;1.13;;;;;20.00;100250.00;;;;2078522;28;20690;-54
2022/10/26 04:35:27;;;;;;;1.60;1.00;;;;;20.00;100249.00;;;;2078575;28;20899;-54
2022/10/26 04:36:29;;;;;;;1.50;1.20;;;;;20.00;100236.00;;;;2078245;28;20296;-54
2022/10/26 04:37:29;;;;;;;1.80;1.20;;;;;20.00;100160.00;;;;2078331;28;20217;-54
2022/10/26 04:38:29;;;;;;;2.60;1.30;;;;;20.00;100242.00;;;;2078432;28;20651;-54
2022/10/26 04:39:30;;;;;;;2.00;1.20;;;;;20.00;100225.00;;;;2077249;28;20577;-54
2022/10/26 04:40:30;;;;;;;1.73;1.03;;;;;20.00;100238.00;;;;2078548;28;20209;-54
2022/10/26 04:41:31;;;;;;;2.57;1.37;;;;;20.00;100235.00;;;;2078332;28;20240;-54
2022/10/26 04:42:41;;;;;;;2.03;0.93;;;;;20.00;100240.00;;;;2076345;28;20498;-54
2022/10/26 04:43:41;;;;;;;2.08;1.10;;;;;20.00;100232.00;;;;2074778;28;20225;-54
2022/10/26 04:44:42;;;;;;;3.77;1.20;;;;;20.00;100243.00;;;;2069760;28;20222;-54
2022/10/26 04:45:42;;;;;;;2.10;1.10;;;;;20.00;100239.00;;;;2069941;28;20217;-54
2022/10/26 04:46:42;;;;;;;2.03;1.00;;;;;20.00;100241.00;;;;2070215;28;20328;-53
2022/10/26 04:47:43;;;;;;;2.30;1.00;;;;;20.00;100238.00;;;;2076456;28;20263;-53
2022/10/26 04:48:43;;;;;;;1.60;1.17;;;;;20.00;100229.00;;;;2078667;28;20224;-54
2022/10/26 04:49:43;;;;;;;2.97;1.03;;;;;20.00;100231.00;;;;2078801;28;20217;-54
2022/10/26 04:50:44;;;;;;;1.90;1.00;;;;;20.00;100227.00;;;;2078678;28;20220;-54
2022/10/26 04:51:44;;;;;;;4.70;1.30;;;;;19.90;100226.00;;;;2078395;28;20209;-54
2022/10/26 04:52:44;;;;;;;2.17;1.27;;;;;20.00;100229.00;;;;2077366;28;20296;-54
2022/10/26 04:53:45;;;;;;;4.40;1.47;;;;;19.90;100226.00;;;;2069729;28;20214;-54
2022/10/26 04:54:45;;;;;;;1.93;0.93;;;;;20.00;100228.00;;;;2069966;28;20257;-54
2022/10/26 04:55:45;;;;;;;1.40;1.00;;;;;20.00;100232.00;;;;2078763;28;20217;-54
2022/10/26 04:56:45;;;;;;;2.20;1.30;;;;;20.00;100221.00;;;;2078855;28;20220;-54
2022/10/26 04:57:46;;;;;;;1.50;1.20;;;;;20.00;100232.00;;;;2077613;28;20217;-53
2022/10/26 04:58:46;;;;;;;1.83;1.33;;;;;20.00;100231.00;;;;2077455;28;20296;-54
2022/10/26 04:59:46;;;;;;;1.80;1.00;;;;;20.00;100226.00;;;;2078374;28;20236;-54
2022/10/26 05:00:47;;;;;;;1.83;1.00;;;;;20.00;100236.00;;;;2078735;28;20240;-54
2022/10/26 05:01:47;;;;;;;1.93;1.57;;;;;20.00;100236.00;;;;2077568;28;20210;-54
2022/10/26 05:02:48;;;;;;;3.40;1.20;;;;;20.00;100226.00;;;;2078367;28;20240;-54
2022/10/26 05:03:49;;;;;;;1.83;1.40;;;;;20.00;100235.00;;;;2078425;28;20244;-53
2022/10/26 05:04:49;;;;;;;4.03;1.30;;;;;20.00;100222.00;;;;2078705;28;20217;-54
2022/10/26 05:05:50;;;;;;;2.10;1.20;;;;;20.00;100225.00;;;;2078681;28;20248;-54
2022/10/26 05:06:52;;;;;;;1.70;1.20;;;;;20.00;100224.00;;;;2078684;28;20218;-53
2022/10/26 05:07:54;;;;;;;1.65;1.10;;;;;20.00;100226.00;;;;2077059;28;20213;-53
2022/10/26 05:08:55;;;;;;;2.05;1.30;;;;;19.90;100219.00;;;;2075854;28;20206;-53
2022/10/26 05:09:55;;;;;;;3.17;1.30;;;;;20.00;100228.00;;;;2078678;28;20228;-53